Time;durP1;ratioP1;P1;durP2;ratioP2;P2;SDS_P1;SDS_P2;PMS_P1;PMS_P2;Temp;Humidity;BMP_temperature;BMP_pressure;BME280_temperature;BME280_humidity;BME280_pressure;Samples;Min_cycle;Max_cycle;Signal;HPM_P1;HPM_P2
2022/10/10 00:00:50;;;;;;;;;;;19.20;82.10;;;;;;5076234;28;19924;-71
2022/10/10 00:03:16;;;;;;;;;;;19.20;82.10;;;;;;5110457;28;20270;-73
2022/10/10 00:05:41;;;;;;;;;;;19.10;82.00;;;;;;5111268;28;19924;-72
2022/10/10 00:08:07;;;;;;;;;;;19.30;82.10;;;;;;5113527;28;19975;-71
2022/10/10 00:10:33;;;;;;;;;;;19.30;82.10;;;;;;5114832;28;20018;-73
2022/10/10 00:12:58;;;;;;;;;;;19.30;82.10;;;;;;5093580;28;20381;-72
2022/10/10 00:15:24;;;;;;;;;;;18.90;81.90;;;;;;5113909;28;19931;-73
2022/10/10 00:17:50;;;;;;;;;;;19.30;82.10;;;;;;5112270;28;20386;-73
2022/10/10 00:20:16;;;;;;;;;;;19.40;82.20;;;;;;5118783;28;19962;-73
2022/10/10 00:22:42;;;;;;;;;;;19.40;82.10;;;;;;5118586;28;20266;-73
2022/10/10 00:25:07;;;;;;;;;;;19.20;82.00;;;;;;5117445;28;19944;-71
2022/10/10 00:27:33;;;;;;;;;;;19.20;82.10;;;;;;5099230;28;19996;-71
2022/10/10 00:29:59;;;;;;;;;;;19.20;82.00;;;;;;5118416;28;19923;-74
2022/10/10 00:32:24;;;;;;;;;;;19.00;82.00;;;;;;5099652;28;19924;-73
2022/10/10 00:34:53;;;;;;;;;;;19.00;82.00;;;;;;5118474;28;19920;-72
2022/10/10 00:37:19;;;;;;;;;;;19.20;82.10;;;;;;5115946;28;19924;-73
2022/10/10 00:39:44;;;;;;;;;;;19.10;82.10;;;;;;5118310;28;19923;-73
2022/10/10 00:42:14;;;;;;;;;;;19.00;82.00;;;;;;5117572;28;20396;-73
2022/10/10 00:44:40;;;;;;;;;;;19.10;82.00;;;;;;5118330;28;20296;-73
2022/10/10 00:47:05;;;;;;;;;;;19.20;82.00;;;;;;5114711;28;19924;-69
2022/10/10 00:49:31;;;;;;;;;;;19.30;82.10;;;;;;5117939;28;20015;-72
2022/10/10 00:51:57;;;;;;;;;;;19.10;82.00;;;;;;5097473;28;19946;-73
2022/10/10 00:54:23;;;;;;;;;;;19.20;82.10;;;;;;5118107;28;20336;-72
2022/10/10 00:56:53;;;;;;;;;;;19.00;81.90;;;;;;5097674;28;20373;-70
2022/10/10 00:59:18;;;;;;;;;;;19.10;81.90;;;;;;5099745;28;19976;-72
2022/10/10 01:01:44;;;;;;;;;;;19.10;81.90;;;;;;5117672;28;20302;-73
2022/10/10 01:04:29;;;;;;;;;;;19.10;81.90;;;;;;5117951;28;19924;-73
2022/10/10 01:06:54;;;;;;;;;;;19.00;81.90;;;;;;5117630;28;19993;-72
2022/10/10 01:09:20;;;;;;;;;;;19.00;81.80;;;;;;5114024;28;20454;-74
2022/10/10 01:11:48;;;;;;;;;;;19.10;81.80;;;;;;5117767;28;19924;-71
2022/10/10 01:14:36;;;;;;;;;;;19.00;81.80;;;;;;5117759;28;20278;-73
2022/10/10 01:17:06;;;;;;;;;;;19.20;81.90;;;;;;5098826;28;19924;-73
2022/10/10 01:19:31;;;;;;;;;;;18.90;81.80;;;;;;5097289;28;19924;-73
2022/10/10 01:22:05;;;;;;;;;;;18.90;81.80;;;;;;5117409;28;19957;-73
2022/10/10 01:24:50;;;;;;;;;;;18.90;81.80;;;;;;5098062;28;19924;-73
2022/10/10 01:27:22;;;;;;;;;;;19.10;82.00;;;;;;5098335;28;20415;-73
2022/10/10 01:29:51;;;;;;;;;;;19.30;82.00;;;;;;5095910;28;19977;-72
2022/10/10 01:32:29;;;;;;;;;;;18.90;81.80;;;;;;5099257;28;19950;-73
2022/10/10 01:35:18;;;;;;;;;;;19.20;81.90;;;;;;5115109;28;19924;-72
2022/10/10 01:37:44;;;;;;;;;;;18.90;81.80;;;;;;5098853;28;19934;-73
2022/10/10 01:40:28;;;;;;;;;;;18.90;81.80;;;;;;5113830;28;19927;-72
2022/10/10 01:42:58;;;;;;;;;;;19.20;82.00;;;;;;5116434;28;20336;-73
2022/10/10 01:45:24;;;;;;;;;;;19.10;81.90;;;;;;5077961;28;20019;-73
2022/10/10 01:47:50;;;;;;;;;;;19.10;81.90;;;;;;5096703;28;19972;-73
2022/10/10 01:50:17;;;;;;;;;;;19.10;81.80;;;;;;5079229;28;20830;-70
2022/10/10 01:52:42;;;;;;;;;;;19.00;81.80;;;;;;5116924;28;19931;-72
2022/10/10 01:55:08;;;;;;;;;;;19.10;81.80;;;;;;5116933;28;19924;-73
2022/10/10 01:57:37;;;;;;;;;;;18.90;81.70;;;;;;5116579;28;20372;-73
2022/10/10 02:00:09;;;;;;;;;;;19.10;81.80;;;;;;5116697;28;20297;-71
2022/10/10 02:02:53;;;;;;;;;;;19.10;81.70;;;;;;5114432;28;19930;-71
2022/10/10 02:05:25;;;;;;;;;;;18.80;81.40;;;;;;5098605;28;20028;-73
2022/10/10 02:08:07;;;;;;;;;;;19.00;81.50;;;;;;5114940;28;19986;-71
2022/10/10 02:10:34;;;;;;;;;;;19.00;81.50;;;;;;5097512;28;19927;-73
2022/10/10 02:13:00;;;;;;;;;;;18.70;81.30;;;;;;5114155;28;20337;-73
2022/10/10 02:15:27;;;;;;;;;;;18.80;81.40;;;;;;5115952;28;19930;-72
2022/10/10 02:17:53;;;;;;;;;;;18.80;81.40;;;;;;5098361;28;19943;-71
2022/10/10 02:20:19;;;;;;;;;;;19.00;81.50;;;;;;5116479;28;19924;-73
2022/10/10 02:22:45;;;;;;;;;;;18.60;81.20;;;;;;5091571;28;20374;-72
2022/10/10 02:25:11;;;;;;;;;;;19.00;81.40;;;;;;5094821;28;20007;-71
2022/10/10 02:27:42;;;;;;;;;;;18.80;81.40;;;;;;5094461;28;19924;-72
2022/10/10 02:30:08;;;;;;;;;;;18.70;81.30;;;;;;5077635;28;19947;-73
2022/10/10 02:32:41;;;;;;;;;;;18.70;81.20;;;;;;5094980;28;20393;-73
2022/10/10 02:35:08;;;;;;;;;;;18.80;81.30;;;;;;5077782;28;20463;-73
2022/10/10 02:37:35;;;;;;;;;;;18.80;81.30;;;;;;5060929;28;20381;-73
2022/10/10 02:40:00;;;;;;;;;;;18.80;81.30;;;;;;5077481;28;19986;-73
2022/10/10 02:42:26;;;;;;;;;;;18.70;81.20;;;;;;5077334;28;19972;-72
2022/10/10 02:44:52;;;;;;;;;;;18.70;81.20;;;;;;5108478;28;19924;-73
2022/10/10 02:47:17;;;;;;;;;;;18.60;81.10;;;;;;5115624;28;19924;-72
2022/10/10 02:49:43;;;;;;;;;;;18.90;81.30;;;;;;5115609;28;20300;-72
2022/10/10 02:52:09;;;;;;;;;;;18.60;81.10;;;;;;5115436;28;19935;-73
2022/10/10 02:54:35;;;;;;;;;;;18.90;81.30;;;;;;5113645;28;19928;-73
2022/10/10 02:57:00;;;;;;;;;;;18.80;81.20;;;;;;5097177;28;20404;-73
2022/10/10 02:59:26;;;;;;;;;;;18.70;81.20;;;;;;5115539;28;19931;-72
2022/10/10 03:01:51;;;;;;;;;;;18.80;81.20;;;;;;5115273;28;19996;-72
2022/10/10 03:04:17;;;;;;;;;;;18.60;81.10;;;;;;5096307;28;19923;-71
2022/10/10 03:06:43;;;;;;;;;;;18.50;81.00;;;;;;5114625;28;19931;-71
2022/10/10 03:09:08;;;;;;;;;;;18.70;81.10;;;;;;5112516;28;19946;-72
2022/10/10 03:11:34;;;;;;;;;;;18.60;81.10;;;;;;5095086;28;19928;-72
2022/10/10 03:14:00;;;;;;;;;;;18.70;81.20;;;;;;5094797;28;19924;-72
2022/10/10 03:16:25;;;;;;;;;;;19.00;81.30;;;;;;5105339;28;19923;-69
2022/10/10 03:18:51;;;;;;;;;;;18.80;81.20;;;;;;5115018;28;20006;-69
2022/10/10 03:21:16;;;;;;;;;;;18.60;81.20;;;;;;5114966;28;19923;-71
2022/10/10 03:23:42;;;;;;;;;;;18.40;81.10;;;;;;5096687;28;20093;-72
2022/10/10 03:26:08;;;;;;;;;;;18.90;81.40;;;;;;5094997;28;19970;-72
2022/10/10 03:28:35;;;;;;;;;;;18.60;81.20;;;;;;5095790;28;19931;-71
2022/10/10 03:31:00;;;;;;;;;;;18.50;81.20;;;;;;5114317;28;19923;-69
2022/10/10 03:33:26;;;;;;;;;;;18.70;81.20;;;;;;5112660;28;19924;-72
2022/10/10 03:35:51;;;;;;;;;;;18.80;81.40;;;;;;5115024;28;19924;-69
2022/10/10 03:38:17;;;;;;;;;;;18.40;81.20;;;;;;5112599;28;19923;-72
2022/10/10 03:40:43;;;;;;;;;;;18.90;81.50;;;;;;5114605;28;20408;-73
2022/10/10 03:43:09;;;;;;;;;;;18.80;81.40;;;;;;5114848;28;20042;-72
2022/10/10 03:45:34;;;;;;;;;;;18.70;81.40;;;;;;5114878;28;20331;-72
2022/10/10 03:48:00;;;;;;;;;;;18.60;81.30;;;;;;5094426;28;20014;-71
2022/10/10 03:50:26;;;;;;;;;;;18.60;81.40;;;;;;5114802;28;20284;-71
2022/10/10 03:52:51;;;;;;;;;;;18.50;81.40;;;;;;5113887;28;20300;-72
2022/10/10 03:55:17;;;;;;;;;;;18.40;81.30;;;;;;5113660;28;19924;-71
2022/10/10 03:57:42;;;;;;;;;;;18.40;81.30;;;;;;5113228;28;19935;-71
2022/10/10 04:00:08;;;;;;;;;;;18.50;81.30;;;;;;5095447;28;20388;-72
2022/10/10 04:02:34;;;;;;;;;;;18.60;81.40;;;;;;5114713;28;19924;-72
2022/10/10 04:04:59;;;;;;;;;;;18.40;81.30;;;;;;5114938;28;19924;-72
2022/10/10 04:07:25;;;;;;;;;;;18.40;81.30;;;;;;5113239;28;20393;-71
2022/10/10 04:09:51;;;;;;;;;;;18.50;81.40;;;;;;5112348;28;19924;-71
2022/10/10 04:12:17;;;;;;;;;;;;;;;;;;5114234;28;20441;-71
2022/10/10 04:14:42;;;;;;;;;;;18.50;81.40;;;;;;5094163;28;19951;-72
2022/10/10 04:17:08;;;;;;;;;;;18.40;81.30;;;;;;5090339;28;19934;-72
2022/10/10 04:19:34;;;;;;;;;;;18.60;81.50;;;;;;5111288;28;20001;-71
2022/10/10 04:21:59;;;;;;;;;;;18.60;81.50;;;;;;5114293;28;19924;-72
2022/10/10 04:24:25;;;;;;;;;;;18.20;81.30;;;;;;5114156;28;20297;-73
2022/10/10 04:26:50;;;;;;;;;;;18.50;81.50;;;;;;5113978;28;19963;-69
2022/10/10 04:29:17;;;;;;;;;;;;;;;;;;5114192;28;19924;-71
2022/10/10 04:31:42;;;;;;;;;;;18.30;81.30;;;;;;5112140;28;19975;-72
2022/10/10 04:34:08;;;;;;;;;;;18.70;81.60;;;;;;5114354;28;19924;-72
2022/10/10 04:36:33;;;;;;;;;;;18.60;81.50;;;;;;5096111;28;20392;-72
2022/10/10 04:38:59;;;;;;;;;;;18.50;81.50;;;;;;5114251;28;20380;-72
2022/10/10 04:41:25;;;;;;;;;;;18.40;81.40;;;;;;5111960;28;19924;-71
2022/10/10 04:43:50;;;;;;;;;;;18.60;81.60;;;;;;5114233;28;20311;-72
2022/10/10 04:46:16;;;;;;;;;;;18.40;81.40;;;;;;5113628;28;19986;-71
2022/10/10 04:48:41;;;;;;;;;;;18.60;81.50;;;;;;5095717;28;19972;-72
2022/10/10 04:51:08;;;;;;;;;;;18.50;81.40;;;;;;5111661;28;19923;-71
2022/10/10 04:53:33;;;;;;;;;;;18.30;81.30;;;;;;5114091;28;19934;-72
2022/10/10 04:55:59;;;;;;;;;;;18.60;81.20;;;;;;5095568;28;19924;-72
2022/10/10 04:58:24;;;;;;;;;;;18.20;81.30;;;;;;5114080;28;19931;-72
2022/10/10 05:00:51;;;;;;;;;;;18.40;81.40;;;;;;5113953;28;20305;-71
2022/10/10 05:03:17;;;;;;;;;;;;;;;;;;5100566;28;19932;-68
2022/10/10 05:05:43;;;;;;;;;;;18.30;81.40;;;;;;5116868;28;20455;-69
2022/10/10 05:08:08;;;;;;;;;;;18.30;81.40;;;;;;5117584;28;19927;-72
2022/10/10 05:10:35;;;;;;;;;;;18.50;81.50;;;;;;5117834;28;19954;-73
2022/10/10 05:13:01;;;;;;;;;;;18.40;81.50;;;;;;5115269;28;19971;-73
2022/10/10 05:15:26;;;;;;;;;;;18.50;81.50;;;;;;5115836;28;19975;-72
2022/10/10 05:17:52;;;;;;;;;;;18.40;81.50;;;;;;5098662;28;19944;-73
2022/10/10 05:20:18;;;;;;;;;;;18.40;81.40;;;;;;5117491;28;19969;-72
2022/10/10 05:22:44;;;;;;;;;;;18.30;81.40;;;;;;5117460;28;20376;-72
2022/10/10 05:25:10;;;;;;;;;;;18.10;81.30;;;;;;5099610;28;19970;-72
2022/10/10 05:27:35;;;;;;;;;;;18.40;81.50;;;;;;5097089;28;19932;-66
2022/10/10 05:30:01;;;;;;;;;;;18.30;81.40;;;;;;5096982;28;19969;-72
2022/10/10 05:32:26;;;;;;;;;;;18.50;81.50;;;;;;5096997;28;19920;-73
2022/10/10 05:34:52;;;;;;;;;;;18.30;81.40;;;;;;5099138;28;19954;-73
2022/10/10 05:37:18;;;;;;;;;;;18.40;81.00;;;;;;5097538;28;19924;-72
2022/10/10 05:39:43;;;;;;;;;;;18.20;81.50;;;;;;5117269;28;19968;-72
2022/10/10 05:42:09;;;;;;;;;;;18.20;81.40;;;;;;5117147;28;20292;-73
2022/10/10 05:44:35;;;;;;;;;;;18.40;81.50;;;;;;5115018;28;20382;-73
2022/10/10 05:47:00;;;;;;;;;;;18.20;81.40;;;;;;5117090;28;20319;-71
2022/10/10 05:49:26;;;;;;;;;;;18.30;81.40;;;;;;5115062;28;20864;-72
2022/10/10 05:51:51;;;;;;;;;;;18.30;81.30;;;;;;5116242;28;20015;-69
2022/10/10 05:54:17;;;;;;;;;;;;;;;;;;5116684;28;19971;-72
2022/10/10 05:56:43;;;;;;;;;;;18.20;81.40;;;;;;5116945;28;20305;-72
2022/10/10 05:59:09;;;;;;;;;;;18.00;81.30;;;;;;5117183;28;19928;-73
2022/10/10 06:01:35;;;;;;;;;;;18.20;81.40;;;;;;5114486;28;19931;-73
2022/10/10 06:04:01;;;;;;;;;;;18.10;81.30;;;;;;5115764;28;20274;-69
2022/10/10 06:06:26;;;;;;;;;;;18.30;81.40;;;;;;5115295;28;19924;-73
2022/10/10 06:08:52;;;;;;;;;;;18.40;81.50;;;;;;5115891;28;20498;-70
2022/10/10 06:11:19;;;;;;;;;;;18.30;81.40;;;;;;5114253;28;19923;-71
2022/10/10 06:13:46;;;;;;;;;;;18.40;81.50;;;;;;5115878;28;19924;-72
2022/10/10 06:16:11;;;;;;;;;;;18.40;81.50;;;;;;5115907;28;19924;-73
2022/10/10 06:18:37;;;;;;;;;;;18.20;81.30;;;;;;5116502;28;19924;-71
2022/10/10 06:21:03;;;;;;;;;;;;;;;;;;5114223;28;20389;-71
2022/10/10 06:23:29;;;;;;;;;;;18.40;81.30;;;;;;5113745;28;20335;-73
2022/10/10 06:25:54;;;;;;;;;;;18.40;81.30;;;;;;5116427;28;19924;-71
2022/10/10 06:28:20;;;;;;;;;;;18.50;81.20;;;;;;5097621;28;19924;-73
2022/10/10 06:30:49;;;;;;;;;;;;;;;;;;5081109;28;20001;-70
2022/10/10 06:33:17;;;;;;;;;;;18.60;81.00;;;;;;5113780;28;19930;-73
2022/10/10 06:35:44;;;;;;;;;;;18.70;81.00;;;;;;5116188;28;19927;-71
2022/10/10 06:38:09;;;;;;;;;;;19.00;81.00;;;;;;5117021;28;20281;-73
2022/10/10 06:40:35;;;;;;;;;;;18.80;80.90;;;;;;5115105;28;19924;-73
2022/10/10 06:43:01;;;;;;;;;;;18.80;80.60;;;;;;5110160;28;20462;-70
2022/10/10 06:45:26;;;;;;;;;;;18.70;80.60;;;;;;5111801;28;19969;-69
2022/10/10 06:47:52;;;;;;;;;;;19.00;80.60;;;;;;5116270;28;19932;-72
2022/10/10 06:50:17;;;;;;;;;;;19.00;80.50;;;;;;5097413;28;19931;-71
2022/10/10 06:52:43;;;;;;;;;;;19.10;80.40;;;;;;5116111;28;19926;-72
2022/10/10 06:55:09;;;;;;;;;;;19.00;80.20;;;;;;5113576;28;19931;-72
2022/10/10 06:57:34;;;;;;;;;;;19.10;80.20;;;;;;5115756;28;19924;-72
2022/10/10 07:00:00;;;;;;;;;;;19.10;80.10;;;;;;5115342;28;20307;-70
2022/10/10 07:02:27;;;;;;;;;;;19.30;80.00;;;;;;5095978;28;19924;-70
2022/10/10 07:04:52;;;;;;;;;;;19.50;80.00;;;;;;5112594;28;19932;-70
2022/10/10 07:07:18;;;;;;;;;;;19.40;79.90;;;;;;5114834;28;19969;-70
2022/10/10 07:09:44;;;;;;;;;;;19.60;79.90;;;;;;5114337;28;20506;-72
2022/10/10 07:12:10;;;;;;;;;;;19.70;79.40;;;;;;5115449;28;20010;-73
2022/10/10 07:14:36;;;;;;;;;;;19.60;79.00;;;;;;5113300;28;19928;-64
2022/10/10 07:17:02;;;;;;;;;;;19.30;78.40;;;;;;5114883;28;19969;-66
2022/10/10 07:19:27;;;;;;;;;;;19.50;78.20;;;;;;5094874;28;19984;-71
2022/10/10 07:21:53;;;;;;;;;;;19.30;78.10;;;;;;5110705;28;19924;-71
2022/10/10 07:24:19;;;;;;;;;;;19.30;78.10;;;;;;5105550;27;19927;-70
2022/10/10 07:26:44;;;;;;;;;;;19.40;78.10;;;;;;5107687;28;19947;-72
2022/10/10 07:29:10;;;;;;;;;;;19.10;78.10;;;;;;5113056;28;19958;-74
2022/10/10 07:31:36;;;;;;;;;;;19.10;78.10;;;;;;5113601;27;20014;-71
2022/10/10 07:34:01;;;;;;;;;;;19.20;78.30;;;;;;5066280;27;19924;-64
2022/10/10 07:36:27;;;;;;;;;;;19.20;78.40;;;;;;5090762;28;19947;-65
2022/10/10 07:38:53;;;;;;;;;;;19.10;78.30;;;;;;5113883;28;20014;-62
2022/10/10 07:41:19;;;;;;;;;;;19.30;78.60;;;;;;5114624;28;19931;-62
2022/10/10 07:43:45;;;;;;;;;;;19.20;78.50;;;;;;5111753;28;19924;-62
2022/10/10 07:46:17;;;;;;;;;;;19.20;78.40;;;;;;5095169;28;19931;-62
2022/10/10 07:48:43;;;;;;;;;;;;;;;;;;5113734;28;20018;-62
2022/10/10 07:51:09;;;;;;;;;;;19.50;78.40;;;;;;5096944;28;20267;-62
2022/10/10 07:53:34;;;;;;;;;;;19.20;78.10;;;;;;5097360;28;19930;-62
2022/10/10 07:56:02;;;;;;;;;;;19.30;78.00;;;;;;5096523;28;19931;-63
2022/10/10 07:58:28;;;;;;;;;;;19.30;78.20;;;;;;5112468;28;19938;-63
2022/10/10 08:01:00;;;;;;;;;;;19.70;78.50;;;;;;5112074;28;19924;-73
2022/10/10 08:03:26;;;;;;;;;;;19.80;78.50;;;;;;5096151;28;19924;-72
2022/10/10 08:05:51;;;;;;;;;;;19.80;78.30;;;;;;5106554;28;19998;-64
2022/10/10 08:08:17;;;;;;;;;;;19.90;78.00;;;;;;5104512;28;19924;-62
2022/10/10 08:10:43;;;;;;;;;;;20.30;78.00;;;;;;5113135;28;19927;-71
2022/10/10 08:13:09;;;;;;;;;;;;;;;;;;5114137;28;19928;-70
2022/10/10 08:15:37;;;;;;;;;;;20.20;76.20;;;;;;5093692;28;19931;-70
2022/10/10 08:18:03;;;;;;;;;;;20.20;77.40;;;;;;5114462;28;20312;-71
2022/10/10 08:20:29;;;;;;;;;;;20.40;77.40;;;;;;5113358;28;19930;-72
2022/10/10 08:22:54;;;;;;;;;;;20.40;77.20;;;;;;5113279;28;19923;-73
2022/10/10 08:25:20;;;;;;;;;;;20.60;77.30;;;;;;5112927;28;19923;-73
2022/10/10 08:27:46;;;;;;;;;;;20.30;77.10;;;;;;5113186;28;19979;-69
2022/10/10 08:30:12;;;;;;;;;;;20.40;77.10;;;;;;5112884;28;20270;-63
2022/10/10 08:32:39;;;;;;;;;;;20.50;77.10;;;;;;5096117;28;19924;-73
2022/10/10 08:35:05;;;;;;;;;;;20.60;77.00;;;;;;5112980;28;19969;-70
2022/10/10 08:37:31;;;;;;;;;;;20.60;77.00;;;;;;5112022;28;19924;-71
2022/10/10 08:39:56;;;;;;;;;;;20.80;77.00;;;;;;5116235;28;19924;-72
2022/10/10 08:42:28;;;;;;;;;;;20.80;77.00;;;;;;5118336;28;19934;-62
2022/10/10 08:44:54;;;;;;;;;;;20.60;76.80;;;;;;5098962;28;19992;-65
2022/10/10 08:47:21;;;;;;;;;;;20.70;76.90;;;;;;5113740;28;19930;-62
2022/10/10 08:49:47;;;;;;;;;;;20.70;76.90;;;;;;5112655;28;20365;-62
2022/10/10 08:52:15;;;;;;;;;;;20.40;76.80;;;;;;5098188;28;19935;-62
2022/10/10 08:54:41;;;;;;;;;;;20.70;77.40;;;;;;5082992;28;20270;-62
2022/10/10 08:57:09;;;;;;;;;;;20.50;77.20;;;;;;5118129;28;19931;-62
2022/10/10 08:59:35;;;;;;;;;;;20.40;77.10;;;;;;5095387;28;19923;-62
2022/10/10 09:02:21;;;;;;;;;;;20.70;77.30;;;;;;5098029;27;20410;-63
2022/10/10 09:04:47;;;;;;;;;;;20.60;77.30;;;;;;5083507;28;19923;-62
2022/10/10 09:07:17;;;;;;;;;;;20.40;77.30;;;;;;5114797;28;19931;-62
2022/10/10 09:09:52;;;;;;;;;;;20.30;77.30;;;;;;5096229;28;19935;-63
2022/10/10 09:12:25;;;;;;;;;;;20.50;77.60;;;;;;5114162;28;19976;-72
2022/10/10 09:15:09;;;;;;;;;;;20.60;76.80;;;;;;5099584;28;19924;-71
2022/10/10 09:17:38;;;;;;;;;;;20.70;77.90;;;;;;5117752;28;19930;-65
2022/10/10 09:20:15;;;;;;;;;;;20.30;77.80;;;;;;5115232;28;19924;-70
2022/10/10 09:22:59;;;;;;;;;;;20.70;78.10;;;;;;5096946;28;19928;-66
2022/10/10 09:25:39;;;;;;;;;;;20.50;78.00;;;;;;5097143;28;19924;-62
2022/10/10 09:28:06;;;;;;;;;;;20.30;77.90;;;;;;5091904;28;19924;-63
2022/10/10 09:30:33;;;;;;;;;;;20.30;78.00;;;;;;5078734;28;20015;-66
2022/10/10 09:33:07;;;;;;;;;;;20.50;78.20;;;;;;5117068;28;20014;-61
2022/10/10 09:35:33;;;;;;;;;;;20.50;78.20;;;;;;5109374;28;19931;-66
2022/10/10 09:38:10;;;;;;;;;;;20.40;78.20;;;;;;5082268;28;20336;-62
2022/10/10 09:40:36;;;;;;;;;;;20.40;78.50;;;;;;5082165;28;20270;-61
2022/10/10 09:43:10;;;;;;;;;;;20.00;78.40;;;;;;5098941;28;19923;-64
2022/10/10 09:45:36;;;;;;;;;;;20.10;78.70;;;;;;5095545;28;19924;-61
2022/10/10 09:48:02;;;;;;;;;;;20.30;78.80;;;;;;5098937;28;19969;-64
2022/10/10 09:50:27;;;;;;;;;;;19.90;79.00;;;;;;5092003;28;19927;-61
2022/10/10 09:52:53;;;;;;;;;;;19.70;79.20;;;;;;5097944;28;19923;-63
2022/10/10 09:55:21;;;;;;;;;;;19.90;79.60;;;;;;5098687;28;20281;-62
2022/10/10 09:57:47;;;;;;;;;;;19.60;79.80;;;;;;5098793;28;19923;-62
2022/10/10 10:00:19;;;;;;;;;;;19.60;80.10;;;;;;5112384;28;19924;-62
2022/10/10 10:02:48;;;;;;;;;;;19.80;80.50;;;;;;5115262;28;19989;-62
2022/10/10 10:05:14;;;;;;;;;;;;;;;;;;5116302;28;20373;-64
2022/10/10 10:07:44;;;;;;;;;;;19.70;80.80;;;;;;5114331;28;20002;-62
2022/10/10 10:10:11;;;;;;;;;;;19.60;80.90;;;;;;5087422;28;19928;-62
2022/10/10 10:12:37;;;;;;;;;;;19.60;81.10;;;;;;5115916;28;20396;-61
2022/10/10 10:15:04;;;;;;;;;;;19.50;80.90;;;;;;5099385;28;19924;-63
2022/10/10 10:17:30;;;;;;;;;;;19.50;81.00;;;;;;5095620;28;19999;-62
2022/10/10 10:19:56;;;;;;;;;;;19.70;81.20;;;;;;5093160;28;19974;-62
2022/10/10 10:22:24;;;;;;;;;;;19.60;81.30;;;;;;5060695;28;19928;-67
2022/10/10 10:24:50;;;;;;;;;;;19.50;80.30;;;;;;5096023;28;20019;-63
2022/10/10 10:27:16;;;;;;;;;;;19.40;81.30;;;;;;5094411;28;20362;-63
2022/10/10 10:29:52;;;;;;;;;;;19.50;81.50;;;;;;5083340;28;19966;-62
2022/10/10 10:32:32;;;;;;;;;;;19.60;81.60;;;;;;5093940;28;19924;-62
2022/10/10 10:34:58;;;;;;;;;;;;;;;;;;5094852;28;19924;-70
2022/10/10 10:37:25;;;;;;;;;;;19.50;81.90;;;;;;5095071;28;19924;-62
2022/10/10 10:39:50;;;;;;;;;;;19.70;82.00;;;;;;5094789;28;19928;-62
2022/10/10 10:42:16;;;;;;;;;;;19.40;81.90;;;;;;5077429;28;20015;-62
2022/10/10 10:44:49;;;;;;;;;;;19.40;81.90;;;;;;5095461;28;19928;-62
2022/10/10 10:47:15;;;;;;;;;;;19.40;82.00;;;;;;5095579;28;19978;-62
2022/10/10 10:49:41;;;;;;;;;;;19.60;82.00;;;;;;5094314;28;19982;-61
2022/10/10 10:52:15;;;;;;;;;;;19.70;82.10;;;;;;5094706;28;19924;-75
2022/10/10 10:54:47;;;;;;;;;;;19.60;82.30;;;;;;5095166;28;19925;-75
2022/10/10 10:57:27;;;;;;;;;;;19.60;82.20;;;;;;5095454;28;19935;-75
2022/10/10 10:59:55;;;;;;;;;;;19.50;82.20;;;;;;5076818;28;19928;-74
2022/10/10 11:02:21;;;;;;;;;;;;;;;;;;5093172;28;19924;-61
2022/10/10 11:05:02;;;;;;;;;;;19.80;82.50;;;;;;5095323;28;19924;-61
2022/10/10 11:07:29;;;;;;;;;;;19.80;82.70;;;;;;5094937;28;19925;-62
2022/10/10 11:10:10;;;;;;;;;;;19.80;82.60;;;;;;5094836;28;20404;-62
2022/10/10 11:12:55;;;;;;;;;;;20.10;82.80;;;;;;5092950;28;19969;-61
2022/10/10 11:15:33;;;;;;;;;;;19.80;82.50;;;;;;5096524;28;19939;-61
2022/10/10 11:18:04;;;;;;;;;;;20.00;82.70;;;;;;5115209;28;19957;-63
2022/10/10 11:20:31;;;;;;;;;;;20.10;82.60;;;;;;5097208;28;19970;-61
2022/10/10 11:23:04;;;;;;;;;;;20.00;82.30;;;;;;5112937;28;20414;-61
2022/10/10 11:25:49;;;;;;;;;;;19.80;82.40;;;;;;5079894;28;19931;-62
2022/10/10 11:28:25;;;;;;;;;;;20.30;82.70;;;;;;5114824;28;19923;-61
2022/10/10 11:30:58;;;;;;;;;;;19.90;82.50;;;;;;5096419;28;19924;-61
2022/10/10 11:33:28;;;;;;;;;;;19.90;82.40;;;;;;5094819;28;20018;-62
2022/10/10 11:35:53;;;;;;;;;;;20.00;82.50;;;;;;5114025;28;19924;-62
2022/10/10 11:38:23;;;;;;;;;;;20.10;82.50;;;;;;5104877;27;20388;-62
2022/10/10 11:40:57;;;;;;;;;;;20.30;82.60;;;;;;5111034;28;19928;-62
2022/10/10 11:43:28;;;;;;;;;;;20.30;82.70;;;;;;5091110;28;19935;-61
2022/10/10 11:45:56;;;;;;;;;;;20.20;82.60;;;;;;5108086;27;19967;-65
2022/10/10 11:48:22;;;;;;;;;;;20.20;82.60;;;;;;5096610;28;19931;-65
2022/10/10 11:50:49;;;;;;;;;;;19.90;82.70;;;;;;5114837;28;19927;-65
2022/10/10 11:53:22;;;;;;;;;;;19.90;82.60;;;;;;5113591;28;20381;-61
2022/10/10 11:55:48;;;;;;;;;;;19.90;82.50;;;;;;5089379;28;19925;-64
2022/10/10 11:58:14;;;;;;;;;;;;;;;;;;5094279;28;20293;-64
2022/10/10 12:00:42;;;;;;;;;;;19.80;82.70;;;;;;5108016;28;20010;-66
2022/10/10 12:03:07;;;;;;;;;;;20.00;83.30;;;;;;5096090;28;20024;-65
2022/10/10 12:05:38;;;;;;;;;;;19.90;83.10;;;;;;5114287;28;19978;-65
2022/10/10 12:08:16;;;;;;;;;;;19.60;82.90;;;;;;5114594;28;19924;-61
2022/10/10 12:11:02;;;;;;;;;;;19.70;83.10;;;;;;5075975;28;19924;-61
2022/10/10 12:13:32;;;;;;;;;;;19.60;83.00;;;;;;5093231;28;19977;-61
2022/10/10 12:16:00;;;;;;;;;;;19.50;83.20;;;;;;5108880;28;19923;-61
2022/10/10 12:18:30;;;;;;;;;;;19.80;83.50;;;;;;5096414;28;19923;-61
2022/10/10 12:21:02;;;;;;;;;;;19.60;83.60;;;;;;5114355;28;19919;-61
2022/10/10 12:23:28;;;;;;;;;;;19.50;83.80;;;;;;5096592;28;19992;-61
2022/10/10 12:25:54;;;;;;;;;;;19.40;83.90;;;;;;5113428;28;20276;-61
2022/10/10 12:28:24;;;;;;;;;;;19.10;84.20;;;;;;5114068;28;19923;-61
2022/10/10 12:30:55;;;;;;;;;;;19.40;83.60;;;;;;5114272;28;19946;-62
2022/10/10 12:33:24;;;;;;;;;;;19.10;85.00;;;;;;5114323;28;20010;-61
2022/10/10 12:35:50;;;;;;;;;;;;;;;;;;5113137;28;20434;-61
2022/10/10 12:38:17;;;;;;;;;;;19.10;85.40;;;;;;5114232;28;19923;-61
2022/10/10 12:41:01;;;;;;;;;;;19.10;85.60;;;;;;5113975;28;19924;-61
2022/10/10 12:43:36;;;;;;;;;;;19.00;85.70;;;;;;5111739;28;19923;-64
2022/10/10 12:46:20;;;;;;;;;;;19.10;85.80;;;;;;5114196;28;20329;-66
2022/10/10 12:48:55;;;;;;;;;;;19.10;85.90;;;;;;5113147;28;19931;-61
2022/10/10 12:51:21;;;;;;;;;;;19.00;85.80;;;;;;5111028;28;19924;-64
2022/10/10 12:53:48;;;;;;;;;;;19.30;86.00;;;;;;5093530;28;20010;-64
2022/10/10 12:56:15;;;;;;;;;;;19.20;86.00;;;;;;5113016;28;19923;-64
2022/10/10 12:58:41;;;;;;;;;;;19.40;86.30;;;;;;5112902;28;19924;-61
2022/10/10 13:01:22;;;;;;;;;;;19.00;86.10;;;;;;5094956;28;19924;-61
2022/10/10 13:03:49;;;;;;;;;;;19.00;86.30;;;;;;5103804;28;19928;-61
2022/10/10 13:06:20;;;;;;;;;;;19.10;86.50;;;;;;5114100;28;19923;-61
2022/10/10 13:08:46;;;;;;;;;;;18.90;86.50;;;;;;5112978;28;19923;-61
2022/10/10 13:11:14;;;;;;;;;;;19.10;86.60;;;;;;5095093;28;20312;-60
2022/10/10 13:13:47;;;;;;;;;;;19.20;86.80;;;;;;5109633;28;19924;-61
2022/10/10 13:16:13;;;;;;;;;;;19.00;86.70;;;;;;5089928;28;19931;-61
2022/10/10 13:18:49;;;;;;;;;;;19.10;86.70;;;;;;5091841;28;19947;-60
2022/10/10 13:21:17;;;;;;;;;;;19.00;86.70;;;;;;5093537;28;19939;-61
2022/10/10 13:23:43;;;;;;;;;;;19.10;86.70;;;;;;5074820;28;19935;-66
2022/10/10 13:26:18;;;;;;;;;;;19.10;86.90;;;;;;5074963;28;19932;-63
2022/10/10 13:28:44;;;;;;;;;;;19.20;87.00;;;;;;5097694;28;19930;-62
2022/10/10 13:31:10;;;;;;;;;;;;;;;;;;5093504;28;20367;-63
2022/10/10 13:33:35;;;;;;;;;;;19.10;86.90;;;;;;5093498;28;19930;-61
2022/10/10 13:36:05;;;;;;;;;;;19.10;87.10;;;;;;5094204;28;19928;-63
2022/10/10 13:38:31;;;;;;;;;;;19.50;88.00;;;;;;5095054;28;19924;-62
2022/10/10 13:40:56;;;;;;;;;;;19.40;88.20;;;;;;5094383;28;19978;-63
2022/10/10 13:43:22;;;;;;;;;;;19.20;88.10;;;;;;5094424;28;20007;-62
2022/10/10 13:45:58;;;;;;;;;;;19.00;88.00;;;;;;5096260;28;19924;-63
2022/10/10 13:48:25;;;;;;;;;;;19.00;88.10;;;;;;5096274;28;20358;-60
2022/10/10 13:50:55;;;;;;;;;;;19.00;88.20;;;;;;5088852;28;20023;-62
2022/10/10 13:53:27;;;;;;;;;;;19.10;88.20;;;;;;5074980;28;19921;-61
2022/10/10 13:56:13;;;;;;;;;;;19.00;88.40;;;;;;5076424;28;19970;-60
2022/10/10 13:58:42;;;;;;;;;;;19.30;88.50;;;;;;5034214;28;19925;-61
2022/10/10 14:01:22;;;;;;;;;;;19.10;88.50;;;;;;5045140;28;19929;-63
2022/10/10 14:03:48;;;;;;;;;;;19.00;88.50;;;;;;5036890;28;19931;-64
2022/10/10 14:06:20;;;;;;;;;;;19.00;88.70;;;;;;5036668;28;19924;-61
2022/10/10 14:08:46;;;;;;;;;;;19.30;89.00;;;;;;5037004;28;19925;-61
2022/10/10 14:11:13;;;;;;;;;;;19.20;89.00;;;;;;5019941;28;20020;-61
2022/10/10 14:13:38;;;;;;;;;;;19.40;89.40;;;;;;5027879;28;20432;-61
2022/10/10 14:16:11;;;;;;;;;;;19.20;89.40;;;;;;5030793;28;20015;-61
2022/10/10 14:18:37;;;;;;;;;;;19.20;89.50;;;;;;5054487;28;19985;-61
2022/10/10 14:21:03;;;;;;;;;;;19.40;89.60;;;;;;5053543;28;19925;-61
2022/10/10 14:23:28;;;;;;;;;;;19.30;89.30;;;;;;5052788;28;20011;-61
2022/10/10 14:25:54;;;;;;;;;;;19.50;89.20;;;;;;5053470;28;19932;-62